Time;durP1;ratioP1;P1;durP2;ratioP2;P2;SDS_P1;SDS_P2;PMS_P1;PMS_P2;Temp;Humidity;BMP_temperature;BMP_pressure;BME280_temperature;BME280_humidity;BME280_pressure;Samples;Min_cycle;Max_cycle;Signal;HPM_P1;HPM_P2
2022/05/31 00:00:32;;;;;;;;;;;7.90;99.90;;;;;;5096349;28;20048;-69
2022/05/31 00:03:00;;;;;;;0.40;0.40;;;8.00;99.90;;;;;;5100493;28;19961;-70
2022/05/31 00:05:26;;;;;;;0.50;0.43;;;7.80;99.90;;;;;;5096493;28;20425;-70
2022/05/31 00:07:52;;;;;;;;;;;7.80;99.90;;;;;;5097248;28;20097;-69
2022/05/31 00:10:18;;;;;;;0.35;0.35;;;7.90;99.90;;;;;;5104107;28;19919;-69
2022/05/31 00:12:45;;;;;;;0.60;0.50;;;7.80;99.90;;;;;;5107009;28;20047;-70
2022/05/31 00:15:13;;;;;;;0.75;0.50;;;7.80;99.90;;;;;;5096631;28;20112;-70
2022/05/31 00:17:40;;;;;;;0.43;0.40;;;7.80;99.90;;;;;;5100910;28;20060;-69
2022/05/31 00:20:07;;;;;;;0.45;0.40;;;7.90;99.90;;;;;;5109551;28;20039;-70
2022/05/31 00:22:35;;;;;;;0.60;0.40;;;7.80;99.90;;;;;;5113199;28;20103;-70
2022/05/31 00:25:01;;;;;;;0.35;0.35;;;7.80;99.90;;;;;;5111686;28;20086;-70
2022/05/31 00:27:28;;;;;;;0.70;0.40;;;7.90;99.90;;;;;;5099991;28;20040;-70
2022/05/31 00:29:54;;;;;;;0.52;0.50;;;7.90;99.90;;;;;;5105244;28;20039;-70
2022/05/31 00:32:26;;;;;;;0.50;0.50;;;8.00;99.90;;;;;;5106414;28;20058;-70
2022/05/31 00:34:53;;;;;;;0.47;0.40;;;8.00;99.90;;;;;;5105101;28;20042;-70
2022/05/31 00:37:19;;;;;;;0.60;0.50;;;8.00;99.90;;;;;;5099011;28;20084;-70
2022/05/31 00:39:46;;;;;;;0.55;0.43;;;8.10;99.90;;;;;;5111979;28;20118;-70
2022/05/31 00:42:18;;;;;;;0.60;0.50;;;8.00;99.90;;;;;;5092435;28;20474;-70
2022/05/31 00:44:44;;;;;;;0.40;0.40;;;8.10;99.90;;;;;;5078811;28;20044;-70
2022/05/31 00:47:13;;;;;;;0.55;0.55;;;8.10;99.90;;;;;;5092773;28;20052;-70
2022/05/31 00:49:47;;;;;;;0.60;0.50;;;8.10;99.90;;;;;;5107766;28;20084;-70
2022/05/31 00:52:23;;;;;;;0.55;0.50;;;8.30;99.90;;;;;;5103279;28;20043;-70
2022/05/31 00:55:12;;;;;;;0.40;0.40;;;8.30;99.90;;;;;;5098438;28;20040;-70
2022/05/31 00:57:43;;;;;;;0.63;0.50;;;8.40;99.90;;;;;;5102076;28;20051;-71
2022/05/31 01:00:13;;;;;;;0.30;0.30;;;8.40;99.90;;;;;;5100303;28;20038;-71
2022/05/31 01:02:41;;;;;;;0.45;0.40;;;8.50;99.90;;;;;;5099912;28;20043;-71
2022/05/31 01:05:09;;;;;;;0.30;0.30;;;8.40;99.90;;;;;;5112914;28;20047;-70
2022/05/31 01:07:34;;;;;;;0.38;0.38;;;8.50;99.90;;;;;;5088044;28;20062;-70
2022/05/31 01:10:03;;;;;;;0.50;0.45;;;8.60;99.90;;;;;;5092720;28;20052;-70
2022/05/31 01:12:29;;;;;;;0.55;0.25;;;8.60;99.90;;;;;;5112003;28;20044;-70
2022/05/31 01:14:55;;;;;;;0.43;0.43;;;8.60;99.90;;;;;;5099342;28;20494;-70
2022/05/31 01:17:24;;;;;;;0.20;0.20;;;8.60;99.90;;;;;;5099276;28;20513;-70
2022/05/31 01:19:57;;;;;;;0.52;0.20;;;8.60;99.90;;;;;;5107540;28;20051;-70
2022/05/31 01:22:43;;;;;;;0.22;0.20;;;8.70;99.90;;;;;;5106779;28;20383;-70
2022/05/31 01:25:27;;;;;;;0.47;0.20;;;8.70;99.90;;;;;;5096086;28;20036;-70
2022/05/31 01:28:14;;;;;;;0.30;0.30;;;8.80;99.90;;;;;;5107337;28;20123;-70
2022/05/31 01:30:45;;;;;;;0.40;0.40;;;8.80;99.90;;;;;;5103209;28;20379;-70
2022/05/31 01:33:32;;;;;;;0.47;0.20;;;8.90;99.90;;;;;;5094877;28;20036;-70
2022/05/31 01:36:12;;;;;;;0.38;0.30;;;8.80;99.90;;;;;;5092718;28;20040;-70
2022/05/31 01:38:45;;;;;;;0.40;0.40;;;8.80;99.90;;;;;;5104878;28;20070;-71
2022/05/31 01:41:20;;;;;;;0.30;0.20;;;8.80;99.90;;;;;;5102571;28;20035;-71
2022/05/31 01:43:49;;;;;;;0.30;0.30;;;8.80;99.90;;;;;;5107511;28;20039;-71
2022/05/31 01:46:24;;;;;;;0.17;0.17;;;8.90;99.90;;;;;;5105889;28;20505;-71
2022/05/31 01:48:51;;;;;;;0.38;0.38;;;8.80;99.90;;;;;;5105620;28;20160;-71
2022/05/31 01:51:17;;;;;;;0.30;0.30;;;8.90;99.90;;;;;;5101022;28;20043;-70
2022/05/31 01:53:43;;;;;;;0.63;0.40;;;8.90;99.90;;;;;;5111138;28;20444;-70
2022/05/31 01:56:10;;;;;;;0.40;0.40;;;9.00;99.90;;;;;;5110324;28;20089;-70
2022/05/31 01:58:39;;;;;;;0.45;0.45;;;9.00;99.90;;;;;;5099590;28;20036;-70
2022/05/31 02:01:05;;;;;;;0.82;0.43;;;9.00;99.90;;;;;;5104530;28;20446;-70
2022/05/31 02:03:33;;;;;;;0.30;0.30;;;8.90;99.90;;;;;;5094487;28;20092;-70
2022/05/31 02:05:59;;;;;;;0.30;0.28;;;8.90;99.90;;;;;;5092552;28;20044;-70
2022/05/31 02:08:29;;;;;;;0.40;0.40;;;9.00;99.90;;;;;;5090896;28;20367;-70
2022/05/31 02:10:56;;;;;;;0.93;0.50;;;9.00;99.90;;;;;;5096946;28;20044;-69
2022/05/31 02:13:22;;;;;;;0.30;0.30;;;9.00;99.90;;;;;;5096862;28;20054;-69
2022/05/31 02:15:48;;;;;;;0.50;0.40;;;9.00;99.90;;;;;;5097962;28;20071;-70
2022/05/31 02:18:14;;;;;;;0.52;0.50;;;9.00;99.90;;;;;;5091846;28;20075;-70
2022/05/31 02:20:40;;;;;;;0.50;0.50;;;9.00;99.90;;;;;;5091168;28;20044;-70
2022/05/31 02:23:06;;;;;;;0.35;0.35;;;9.10;99.90;;;;;;5100807;28;20075;-70
2022/05/31 02:25:32;;;;;;;0.70;0.60;;;9.00;99.90;;;;;;5100574;28;20047;-70
2022/05/31 02:27:58;;;;;;;1.15;1.00;;;9.10;99.90;;;;;;5094080;28;20040;-71
2022/05/31 02:30:24;;;;;;;1.38;1.00;;;9.00;99.90;;;;;;5103808;28;20082;-71
2022/05/31 02:32:49;;;;;;;0.88;0.80;;;9.00;99.90;;;;;;5104033;28;20061;-71
2022/05/31 02:35:15;;;;;;;0.50;0.50;;;9.10;99.90;;;;;;5107731;27;20031;-70
2022/05/31 02:37:41;;;;;;;0.77;0.60;;;9.10;99.90;;;;;;5104498;28;20040;-70
2022/05/31 02:40:08;;;;;;;0.80;0.80;;;9.10;99.90;;;;;;5101221;28;20058;-69
2022/05/31 02:42:36;;;;;;;0.60;0.60;;;9.10;99.90;;;;;;5095020;28;20047;-70
2022/05/31 02:45:05;;;;;;;0.68;0.60;;;9.10;99.90;;;;;;5110874;28;20134;-70
2022/05/31 02:47:31;;;;;;;0.80;0.80;;;9.20;99.90;;;;;;5093581;28;20040;-70
2022/05/31 02:49:56;;;;;;;1.58;0.70;;;9.20;99.90;;;;;;5109301;28;20466;-71
2022/05/31 02:52:22;;;;;;;1.55;0.98;;;9.10;99.90;;;;;;5094840;28;20050;-70
2022/05/31 02:54:48;;;;;;;0.98;0.85;;;9.20;99.90;;;;;;5089202;28;20058;-71
2022/05/31 02:57:13;;;;;;;1.05;0.77;;;9.20;99.90;;;;;;5088729;28;20032;-71
2022/05/31 02:59:40;;;;;;;0.88;0.77;;;9.10;99.90;;;;;;5096338;28;20501;-69
2022/05/31 03:02:05;;;;;;;;;;;9.20;99.90;;;;;;5096539;28;20051;-70
2022/05/31 03:04:31;;;;;;;0.40;0.40;;;9.10;99.90;;;;;;5095164;28;20243;-70
2022/05/31 03:07:02;;;;;;;0.90;0.70;;;9.20;99.90;;;;;;5074296;28;20044;-70
2022/05/31 03:09:31;;;;;;;0.57;0.40;;;9.20;99.90;;;;;;5106819;28;20051;-69
2022/05/31 03:12:27;;;;;;;0.43;0.40;;;9.20;99.90;;;;;;5098181;28;20079;-70
2022/05/31 03:15:07;;;;;;;0.40;0.40;;;9.20;99.90;;;;;;5101548;28;20059;-70
2022/05/31 03:17:36;;;;;;;0.40;0.40;;;9.20;99.90;;;;;;5101936;28;20063;-69
2022/05/31 03:20:09;;;;;;;0.47;0.40;;;9.10;99.90;;;;;;5109575;28;20043;-70
2022/05/31 03:22:44;;;;;;;0.40;0.40;;;9.20;99.90;;;;;;5111842;28;20431;-70
2022/05/31 03:25:17;;;;;;;0.38;0.30;;;9.20;99.90;;;;;;5108755;28;20051;-70
2022/05/31 03:27:44;;;;;;;0.47;0.47;;;9.10;99.90;;;;;;5086945;28;20062;-70
2022/05/31 03:30:11;;;;;;;0.30;0.30;;;9.20;99.90;;;;;;5095052;28;20348;-71
2022/05/31 03:32:37;;;;;;;0.43;0.30;;;9.20;99.90;;;;;;5108791;28;20040;-70
2022/05/31 03:35:05;;;;;;;0.38;0.38;;;9.20;99.90;;;;;;5108787;27;20100;-71
2022/05/31 03:37:30;;;;;;;0.40;0.40;;;9.20;99.90;;;;;;5111611;27;20044;-71
2022/05/31 03:39:56;;;;;;;0.40;0.40;;;9.20;99.90;;;;;;5103293;28;20047;-71
2022/05/31 03:42:21;;;;;;;0.57;0.40;;;9.20;99.90;;;;;;5111243;28;20043;-69
2022/05/31 03:44:50;;;;;;;0.40;0.40;;;9.10;99.90;;;;;;5113753;28;20091;-70
2022/05/31 03:47:16;;;;;;;0.40;0.32;;;9.20;99.90;;;;;;5102339;28;20046;-70
2022/05/31 03:49:41;;;;;;;0.45;0.40;;;9.20;99.90;;;;;;5102957;28;20040;-70
2022/05/31 03:52:07;;;;;;;0.43;0.20;;;9.30;99.90;;;;;;5109797;28;20398;-71
2022/05/31 03:54:36;;;;;;;0.30;0.30;;;9.30;99.90;;;;;;5105272;28;20063;-71
2022/05/31 03:57:03;;;;;;;0.28;0.28;;;9.30;99.90;;;;;;5106330;27;20513;-71
2022/05/31 03:59:29;;;;;;;1.60;0.50;;;9.30;99.90;;;;;;5100990;28;20040;-71
2022/05/31 04:01:54;;;;;;;0.30;0.30;;;9.30;99.90;;;;;;5110627;28;20051;-71
2022/05/31 04:04:20;;;;;;;0.65;0.60;;;9.30;99.90;;;;;;5096897;28;20039;-71
2022/05/31 04:06:46;;;;;;;0.40;0.40;;;9.30;99.90;;;;;;5097184;28;20043;-71
2022/05/31 04:09:12;;;;;;;0.52;0.52;;;9.40;99.90;;;;;;5094888;28;20079;-69
2022/05/31 04:11:37;;;;;;;0.70;0.70;;;9.40;99.90;;;;;;5098035;28;20040;-70
2022/05/31 04:14:03;;;;;;;0.50;0.50;;;9.40;99.90;;;;;;5104673;28;20474;-70
2022/05/31 04:16:29;;;;;;;0.50;0.50;;;9.40;99.90;;;;;;5084209;28;20131;-70
2022/05/31 04:18:55;;;;;;;0.60;0.60;;;9.40;99.90;;;;;;5112322;27;20071;-70
2022/05/31 04:21:21;;;;;;;1.20;1.00;;;9.50;99.90;;;;;;5098580;28;20165;-69
2022/05/31 04:23:58;;;;;;;1.05;0.88;;;9.50;99.90;;;;;;5100846;28;20483;-70
2022/05/31 04:26:25;;;;;;;2.50;1.52;;;9.50;99.90;;;;;;5096297;28;20081;-70
2022/05/31 04:28:51;;;;;;;0.98;0.90;;;9.50;99.90;;;;;;5097804;28;20559;-70
2022/05/31 04:31:16;;;;;;;1.10;0.80;;;9.60;99.90;;;;;;5098694;28;20173;-71
2022/05/31 04:33:42;;;;;;;2.08;1.20;;;9.60;99.90;;;;;;5100583;28;20108;-71
2022/05/31 04:36:14;;;;;;;1.25;1.15;;;9.60;99.90;;;;;;5110844;28;20051;-71
2022/05/31 04:38:40;;;;;;;0.65;0.65;;;9.60;99.90;;;;;;5109533;28;20089;-71
2022/05/31 04:41:06;;;;;;;0.80;0.60;;;9.70;99.90;;;;;;5101649;28;20028;-71
2022/05/31 04:43:34;;;;;;;0.80;0.57;;;9.70;99.90;;;;;;5104165;28;20126;-71
2022/05/31 04:46:15;;;;;;;0.40;0.40;;;9.70;99.90;;;;;;5103595;28;20185;-71
2022/05/31 04:48:41;;;;;;;0.50;0.50;;;9.80;99.90;;;;;;5108258;28;20042;-71
2022/05/31 04:51:07;;;;;;;0.57;0.52;;;9.90;99.90;;;;;;5102897;28;20052;-71
2022/05/31 04:53:33;;;;;;;0.65;0.65;;;9.90;99.90;;;;;;5092384;28;20121;-71
2022/05/31 04:56:02;;;;;;;1.33;0.80;;;9.90;99.90;;;;;;5100252;28;20259;-71
2022/05/31 04:58:28;;;;;;;1.45;1.17;;;9.90;99.90;;;;;;5102376;28;20510;-71
2022/05/31 05:00:53;;;;;;;1.85;1.02;;;10.00;99.90;;;;;;5100404;28;20079;-71
2022/05/31 05:03:19;;;;;;;1.48;1.05;;;10.00;99.90;;;;;;5102384;28;20094;-70
2022/05/31 05:05:45;;;;;;;0.93;0.85;;;10.10;99.90;;;;;;5091039;28;20062;-71
2022/05/31 05:08:11;;;;;;;1.58;1.10;;;10.10;99.90;;;;;;5096174;28;20055;-72
2022/05/31 05:10:37;;;;;;;2.10;1.77;;;10.10;99.90;;;;;;5098408;28;20048;-70
2022/05/31 05:13:03;;;;;;;2.20;2.00;;;10.10;99.90;;;;;;5110282;28;20316;-70
2022/05/31 05:15:29;;;;;;;1.98;1.60;;;10.10;99.90;;;;;;5099540;28;20094;-70
2022/05/31 05:17:55;;;;;;;2.58;1.50;;;10.10;99.90;;;;;;5090184;28;20040;-70
2022/05/31 05:20:22;;;;;;;2.17;1.40;;;10.10;99.90;;;;;;5097266;28;20093;-70
2022/05/31 05:22:48;;;;;;;3.58;1.88;;;10.20;99.90;;;;;;5094019;28;20066;-70
2022/05/31 05:25:13;;;;;;;2.33;1.45;;;10.20;99.90;;;;;;5092123;28;20036;-71
2022/05/31 05:27:39;;;;;;;1.65;1.52;;;10.30;99.90;;;;;;5092915;28;20165;-71
2022/05/31 05:32:49;;;;;;;2.05;1.38;;;10.30;99.90;;;;;;5098220;28;20059;-70
2022/05/31 05:35:15;;;;;;;2.22;1.58;;;10.40;99.90;;;;;;5107164;28;20040;-71
2022/05/31 05:37:40;;;;;;;2.10;1.50;;;10.50;99.90;;;;;;5095919;28;20123;-71
2022/05/31 05:40:07;;;;;;;2.47;1.50;;;10.50;99.90;;;;;;5098985;27;20082;-72
2022/05/31 05:42:32;;;;;;;;;;;10.50;99.90;;;;;;5098905;28;20130;-71
2022/05/31 05:44:59;;;;;;;2.13;1.50;;;10.50;99.90;;;;;;5093986;28;20322;-71
2022/05/31 05:47:25;;;;;;;2.13;1.35;;;10.50;99.90;;;;;;5092302;28;20541;-71
2022/05/31 05:49:52;;;;;;;3.50;2.25;;;10.60;99.90;;;;;;5089874;28;20048;-71
2022/05/31 05:52:17;;;;;;;3.53;2.00;;;10.60;99.90;;;;;;5096149;28;20047;-71
2022/05/31 05:54:43;;;;;;;2.10;1.70;;;10.60;99.90;;;;;;5089591;28;20052;-71
2022/05/31 05:57:09;;;;;;;2.88;2.10;;;10.70;99.90;;;;;;5093494;28;20070;-71
2022/05/31 05:59:35;;;;;;;3.03;1.73;;;10.70;99.90;;;;;;5092254;28;20038;-71
2022/05/31 06:02:11;;;;;;;3.25;1.67;;;10.80;99.90;;;;;;5091261;28;20036;-71
2022/05/31 06:04:40;;;;;;;;;;;10.80;99.90;;;;;;5091917;28;20079;-71
2022/05/31 06:07:28;;;;;;;3.00;1.80;;;10.80;99.90;;;;;;5098190;28;19923;-70
2022/05/31 06:10:18;;;;;;;1.95;1.50;;;10.90;99.90;;;;;;5093015;28;20046;-70
2022/05/31 06:12:50;;;;;;;1.33;1.20;;;11.00;99.90;;;;;;5092618;28;20056;-70
2022/05/31 06:15:20;;;;;;;1.35;1.20;;;11.10;99.90;;;;;;5091262;28;20096;-70
2022/05/31 06:17:48;;;;;;;1.75;1.33;;;11.10;99.90;;;;;;5088111;28;20052;-69
2022/05/31 06:20:15;;;;;;;1.38;1.00;;;11.10;99.90;;;;;;5073606;28;20491;-70
2022/05/31 06:22:42;;;;;;;1.25;1.10;;;11.30;99.90;;;;;;5090128;28;20079;-69
2022/05/31 06:25:11;;;;;;;1.70;1.00;;;11.40;99.90;;;;;;5089310;28;20052;-69
2022/05/31 06:27:36;;;;;;;2.08;1.02;;;11.40;99.90;;;;;;5091424;28;20123;-69
2022/05/31 06:30:03;;;;;;;1.70;1.05;;;11.50;99.90;;;;;;5089097;28;20458;-69
2022/05/31 06:32:30;;;;;;;1.90;1.52;;;11.60;99.90;;;;;;5100505;28;20051;-69
2022/05/31 06:34:56;;;;;;;1.85;1.30;;;11.60;99.90;;;;;;5103016;28;20027;-69
2022/05/31 06:37:21;;;;;;;1.60;1.17;;;11.70;99.90;;;;;;5094137;28;20039;-70
2022/05/31 06:39:47;;;;;;;2.67;1.48;;;11.90;99.90;;;;;;5078316;28;20044;-70
2022/05/31 06:42:13;;;;;;;1.95;1.42;;;11.90;99.90;;;;;;5092020;28;20475;-70
2022/05/31 06:44:40;;;;;;;;;;;12.00;99.90;;;;;;5097713;28;20400;-71
2022/05/31 06:47:06;;;;;;;3.33;1.75;;;12.00;99.90;;;;;;5096822;28;20451;-71
2022/05/31 06:49:33;;;;;;;;;;;12.00;99.90;;;;;;5100250;28;20044;-71
2022/05/31 06:57:36;;;;;;;1.45;1.05;;;12.20;99.90;;;;;;5098169;28;21925;-71
2022/05/31 07:00:04;;;;;;;1.98;0.98;;;12.30;99.90;;;;;;5092425;28;20078;-71
2022/05/31 07:02:30;;;;;;;1.55;1.08;;;12.50;99.90;;;;;;5101494;28;20051;-71
2022/05/31 07:04:56;;;;;;;1.75;1.30;;;12.60;99.90;;;;;;5075618;28;20040;-71
2022/05/31 07:07:22;;;;;;;2.53;1.48;;;12.70;99.90;;;;;;5092832;28;20082;-71
2022/05/31 07:09:48;;;;;;;1.33;1.13;;;12.70;99.90;;;;;;5091778;28;20071;-71
2022/05/31 07:12:13;;;;;;;1.30;1.10;;;12.80;99.90;;;;;;5074464;28;20700;-71
2022/05/31 07:14:39;;;;;;;1.40;0.85;;;12.90;99.90;;;;;;5099610;28;20042;-71
2022/05/31 07:17:05;;;;;;;1.88;0.90;;;13.00;99.90;;;;;;5076598;28;20099;-71
2022/05/31 07:19:31;;;;;;;0.95;0.70;;;13.10;99.90;;;;;;5095621;28;20048;-71
2022/05/31 07:21:58;;;;;;;;;;;13.30;99.90;;;;;;5094029;28;20040;-71
2022/05/31 07:24:24;;;;;;;1.95;1.67;;;13.40;99.90;;;;;;5086685;28;19920;-71
2022/05/31 07:26:50;;;;;;;2.42;1.50;;;13.40;99.90;;;;;;5094273;28;20042;-71
2022/05/31 07:29:16;;;;;;;2.53;1.40;;;13.40;99.90;;;;;;5097979;28;20463;-71
2022/05/31 07:31:44;;;;;;;1.63;1.38;;;13.40;99.90;;;;;;5091580;28;20044;-72
2022/05/31 07:34:11;;;;;;;3.45;1.70;;;13.40;99.90;;;;;;5086345;28;20126;-71
2022/05/31 07:36:38;;;;;;;2.45;1.58;;;13.50;99.90;;;;;;5102392;28;20047;-71
2022/05/31 07:39:05;;;;;;;1.58;1.45;;;13.50;99.90;;;;;;5095245;28;20364;-71
2022/05/31 07:41:32;;;;;;;1.00;0.90;;;13.60;99.90;;;;;;5094156;28;20587;-71
2022/05/31 07:43:59;;;;;;;4.10;1.75;;;13.80;99.90;;;;;;5090354;28;20066;-71
2022/05/31 07:46:24;;;;;;;;;;;14.00;99.90;;;;;;5088740;28;20392;-71
2022/05/31 07:48:50;;;;;;;2.35;1.50;;;14.20;99.90;;;;;;5092279;28;19922;-72
2022/05/31 07:51:16;;;;;;;1.45;1.13;;;14.30;99.90;;;;;;5092116;28;20125;-72
2022/05/31 07:53:42;;;;;;;2.50;1.15;;;14.70;99.90;;;;;;5091418;28;20051;-72
2022/05/31 07:56:09;;;;;;;1.52;1.00;;;15.00;99.90;;;;;;5089749;28;20032;-71
2022/05/31 07:58:38;;;;;;;1.70;1.08;;;15.30;99.90;;;;;;5092574;28;20031;-71
2022/05/31 08:01:10;;;;;;;3.22;1.60;;;15.30;99.90;;;;;;5090937;28;20080;-71
2022/05/31 08:03:40;;;;;;;1.45;1.10;;;15.20;99.90;;;;;;5083799;28;20445;-71
2022/05/31 08:06:14;;;;;;;2.20;1.23;;;15.40;99.90;;;;;;5098618;28;20100;-71
2022/05/31 08:08:41;;;;;;;0.95;0.82;;;15.60;99.90;;;;;;5094469;28;20031;-70
2022/05/31 08:11:12;;;;;;;1.20;0.90;;;15.90;99.90;;;;;;5097575;28;20046;-70
2022/05/31 08:13:38;;;;;;;1.60;1.30;;;16.20;99.90;;;;;;5095999;28;20047;-72
2022/05/31 08:16:05;;;;;;;;;;;16.20;99.90;;;;;;5080615;28;20054;-70
2022/05/31 08:18:31;;;;;;;1.33;1.00;;;16.50;99.90;;;;;;5108340;27;19930;-70
2022/05/31 08:21:06;;;;;;;1.63;1.10;;;16.70;99.90;;;;;;5092947;28;20042;-69
2022/05/31 08:23:33;;;;;;;2.28;1.13;;;16.90;99.90;;;;;;5096670;28;20185;-70
2022/05/31 08:25:59;;;;;;;2.78;1.10;;;17.10;99.90;;;;;;5093021;28;20044;-71
2022/05/31 08:28:25;;;;;;;2.20;0.93;;;17.10;99.90;;;;;;5098242;27;20041;-71
2022/05/31 08:30:56;;;;;;;1.27;0.88;;;17.10;99.90;;;;;;5088696;28;20040;-70
2022/05/31 08:33:23;;;;;;;1.00;0.90;;;17.10;99.90;;;;;;5100137;28;20040;-70
2022/05/31 08:35:48;;;;;;;2.53;1.40;;;17.20;99.90;;;;;;5102377;27;20372;-71
2022/05/31 08:38:17;;;;;;;;;;;17.10;99.90;;;;;;5089482;28;20088;-71
2022/05/31 08:41:11;;;;;;;2.17;1.40;;;16.90;99.90;;;;;;5095899;28;19916;-71
2022/05/31 08:43:54;;;;;;;1.98;1.30;;;16.80;99.90;;;;;;5122545;27;20076;-71
2022/05/31 08:46:30;;;;;;;1.83;1.05;;;16.80;99.90;;;;;;5118639;27;20081;-71
2022/05/31 08:48:58;;;;;;;2.05;1.38;;;16.80;99.90;;;;;;5097433;28;20397;-71
2022/05/31 08:51:53;;;;;;;2.97;1.33;;;16.70;99.90;;;;;;5076855;28;20055;-71
2022/05/31 08:57:48;;;;;;;2.17;1.25;;;17.00;99.90;;;;;;5094074;28;20036;-70
2022/05/31 09:00:24;;;;;;;2.55;1.10;;;17.00;99.90;;;;;;5105284;28;20093;-71
2022/05/31 09:02:57;;;;;;;1.77;0.95;;;17.10;99.90;;;;;;5106696;28;20044;-71
2022/05/31 09:05:30;;;;;;;1.83;1.13;;;17.20;99.90;;;;;;5084229;28;20112;-70
2022/05/31 09:08:02;;;;;;;1.85;1.40;;;17.50;99.90;;;;;;5099204;28;20036;-71
2022/05/31 09:10:49;;;;;;;1.92;1.13;;;17.80;99.90;;;;;;5096261;28;20109;-71
2022/05/31 09:13:32;;;;;;;0.88;0.75;;;17.80;99.90;;;;;;5097493;28;20391;-71
2022/05/31 09:16:06;;;;;;;1.70;0.80;;;18.00;99.90;;;;;;5105873;28;20254;-70
2022/05/31 09:18:50;;;;;;;2.80;1.23;;;18.30;99.90;;;;;;5101882;28;20131;-70
2022/05/31 09:21:27;;;;;;;2.13;1.20;;;18.50;99.10;;;;;;5100930;28;20103;-71
2022/05/31 09:23:55;;;;;;;1.17;0.98;;;18.60;97.40;;;;;;5105277;28;20131;-72
2022/05/31 09:26:41;;;;;;;1.60;0.88;;;18.50;97.10;;;;;;5096975;28;20047;-72
2022/05/31 09:29:33;;;;;;;1.58;0.90;;;18.40;97.40;;;;;;5105551;28;20126;-72
2022/05/31 09:32:09;;;;;;;1.63;0.75;;;18.80;98.00;;;;;;5098104;28;20491;-72
2022/05/31 09:34:46;;;;;;;1.45;0.60;;;18.70;97.60;;;;;;5106933;28;20051;-72
2022/05/31 09:37:18;;;;;;;1.33;0.80;;;18.40;96.40;;;;;;5105012;28;20093;-72
2022/05/31 09:39:55;;;;;;;2.00;1.20;;;18.30;96.10;;;;;;5081328;28;20031;-71
2022/05/31 09:42:32;;;;;;;2.08;0.90;;;18.20;94.70;;;;;;5103024;28;20122;-71
2022/05/31 09:45:18;;;;;;;1.60;0.90;;;18.40;96.30;;;;;;5091807;28;20059;-71
2022/05/31 09:47:44;;;;;;;0.55;0.50;;;18.60;94.80;;;;;;5083687;28;20505;-71
2022/05/31 09:50:10;;;;;;;;;;;18.50;95.30;;;;;;5112583;28;20035;-71
2022/05/31 09:52:43;;;;;;;1.20;0.70;;;18.50;96.30;;;;;;5106926;28;19920;-71
2022/05/31 09:58:12;;;;;;;0.98;0.80;;;18.20;94.40;;;;;;5109368;28;20065;-71
2022/05/31 10:01:02;;;;;;;2.33;1.10;;;18.10;94.90;;;;;;5105468;28;20097;-71
2022/05/31 10:03:48;;;;;;;1.00;0.90;;;17.80;94.20;;;;;;5096613;28;20050;-71
2022/05/31 10:06:18;;;;;;;1.77;0.60;;;17.70;93.40;;;;;;5108493;28;20039;-71
2022/05/31 10:08:47;;;;;;;1.20;0.60;;;17.60;94.10;;;;;;5100384;28;20044;-71
2022/05/31 10:11:43;;;;;;;0.90;0.68;;;17.80;93.60;;;;;;5108494;28;20043;-71
2022/05/31 10:14:26;;;;;;;0.65;0.40;;;17.80;94.40;;;;;;5097385;28;20040;-71
2022/05/31 10:16:54;;;;;;;2.10;0.60;;;17.80;94.10;;;;;;5090139;28;20632;-71
2022/05/31 10:19:28;;;;;;;1.65;0.75;;;17.60;94.20;;;;;;5091940;28;20051;-71
2022/05/31 10:21:54;;;;;;;1.85;0.90;;;17.50;93.60;;;;;;5111703;28;20040;-71
2022/05/31 10:24:22;;;;;;;;;;;17.40;95.70;;;;;;5097423;28;20157;-71
2022/05/31 10:27:21;;;;;;;1.02;0.68;;;17.30;95.20;;;;;;5108749;28;19920;-71
2022/05/31 10:29:53;;;;;;;1.33;0.52;;;17.20;94.40;;;;;;5099319;28;20415;-71
2022/05/31 10:32:31;;;;;;;2.67;1.02;;;17.30;94.70;;;;;;5108901;28;20095;-71
2022/05/31 10:35:28;;;;;;;2.08;0.98;;;17.30;93.90;;;;;;5110441;28;20052;-71
2022/05/31 10:38:10;;;;;;;1.20;0.70;;;17.30;95.60;;;;;;5098635;28;20096;-71
2022/05/31 10:40:45;;;;;;;1.80;0.80;;;17.40;93.50;;;;;;5110004;28;20138;-71
2022/05/31 10:43:30;;;;;;;1.23;0.80;;;17.50;94.00;;;;;;5110288;28;20052;-71
2022/05/31 10:45:56;;;;;;;2.08;0.90;;;17.50;94.70;;;;;;5095738;28;20566;-70
2022/05/31 10:48:24;;;;;;;1.33;0.80;;;17.50;92.90;;;;;;5110003;28;20072;-70
2022/05/31 10:51:00;;;;;;;3.17;1.52;;;17.40;93.20;;;;;;5100161;28;20157;-70
2022/05/31 10:53:39;;;;;;;1.83;1.00;;;17.20;94.20;;;;;;5109731;28;20127;-71
2022/05/31 10:56:20;;;;;;;1.83;1.00;;;17.20;93.90;;;;;;5095638;28;20040;-71
2022/05/31 10:59:00;;;;;;;1.50;0.80;;;17.30;94.20;;;;;;5097286;28;20119;-71
2022/05/31 11:02:08;;;;;;;1.92;1.00;;;17.60;93.40;;;;;;5096349;28;20059;-71
2022/05/31 11:04:55;;;;;;;2.28;1.08;;;17.60;93.30;;;;;;5096953;28;20399;-71
2022/05/31 11:13:53;;;;;;;1.73;0.90;;;17.80;93.40;;;;;;5089461;28;20430;-71
2022/05/31 11:16:36;;;;;;;1.13;0.60;;;17.90;93.00;;;;;;5099531;28;20047;-71
2022/05/31 11:19:18;;;;;;;1.10;0.70;;;18.10;93.90;;;;;;5098553;28;20092;-76
2022/05/31 11:22:03;;;;;;;2.65;0.93;;;18.30;92.80;;;;;;5083952;28;20036;-76
2022/05/31 11:24:57;;;;;;;2.10;0.98;;;18.20;91.70;;;;;;5089168;28;20433;-76
2022/05/31 11:28:01;;;;;;;1.52;0.70;;;18.30;91.80;;;;;;5093711;28;20035;-75
2022/05/31 11:30:40;;;;;;;1.50;0.82;;;18.70;91.60;;;;;;5102913;28;20040;-71
2022/05/31 11:33:21;;;;;;;2.17;0.90;;;19.00;91.30;;;;;;5102463;28;20040;-70
2022/05/31 11:36:17;;;;;;;0.98;0.65;;;19.30;92.10;;;;;;5104808;28;20036;-70
2022/05/31 11:38:42;;;;;;;3.60;1.10;;;19.50;91.00;;;;;;5097514;28;20074;-71
2022/05/31 11:41:14;;;;;;;;;;;19.40;87.90;;;;;;5106991;28;20431;-71
2022/05/31 11:44:02;;;;;;;1.95;0.93;;;19.60;90.90;;;;;;5099489;28;19916;-75
2022/05/31 11:46:50;;;;;;;2.30;1.00;;;19.80;89.30;;;;;;5102092;27;20067;-76
2022/05/31 11:49:54;;;;;;;1.35;0.80;;;19.90;88.00;;;;;;5103854;28;20073;-75
2022/05/31 11:52:48;;;;;;;2.63;1.00;;;20.10;83.80;;;;;;5094664;28;20089;-74
2022/05/31 11:55:29;;;;;;;1.20;0.90;;;19.90;84.40;;;;;;5099191;28;20433;-74
2022/05/31 11:58:00;;;;;;;1.23;0.65;;;20.20;85.20;;;;;;5103032;28;20048;-74
2022/05/31 12:00:32;;;;;;;1.65;0.63;;;20.80;86.50;;;;;;5110976;28;20100;-74
2022/05/31 12:03:28;;;;;;;1.17;0.68;;;21.10;88.70;;;;;;5095194;28;20044;-75
2022/05/31 12:06:02;;;;;;;1.48;0.70;;;21.40;80.80;;;;;;5088572;28;20048;-75
2022/05/31 12:08:37;;;;;;;1.45;0.70;;;21.70;78.00;;;;;;5092260;28;20503;-75
2022/05/31 12:11:09;;;;;;;0.77;0.68;;;21.70;80.40;;;;;;5093612;28;20402;-74
2022/05/31 12:13:41;;;;;;;1.85;0.90;;;21.80;76.80;;;;;;5099823;28;20101;-75
2022/05/31 12:16:07;;;;;;;1.95;0.90;;;21.60;77.60;;;;;;5109383;28;20043;-74
2022/05/31 12:18:45;;;;;;;2.25;1.10;;;21.30;81.20;;;;;;5104885;28;20079;-75
2022/05/31 12:21:49;;;;;;;1.63;0.80;;;20.80;77.30;;;;;;5096024;28;20119;-74
2022/05/31 12:24:21;;;;;;;2.42;0.90;;;20.40;80.30;;;;;;5084714;28;20040;-74
2022/05/31 12:27:01;;;;;;;1.65;0.70;;;19.70;79.20;;;;;;5105785;28;20047;-74
2022/05/31 12:29:43;;;;;;;0.77;0.50;;;19.30;79.40;;;;;;5094305;28;20221;-75
2022/05/31 12:32:39;;;;;;;1.45;0.65;;;19.00;79.60;;;;;;5110271;28;20074;-74
2022/05/31 12:35:08;;;;;;;0.43;0.40;;;18.70;82.20;;;;;;5113119;28;20084;-74
2022/05/31 12:38:10;;;;;;;0.95;0.60;;;18.40;83.30;;;;;;5112925;28;20049;-75
2022/05/31 12:40:38;;;;;;;0.82;0.47;;;18.30;86.40;;;;;;5112668;28;20046;-74
2022/05/31 12:43:05;;;;;;;0.70;0.50;;;18.10;86.50;;;;;;5112602;28;20043;-71
2022/05/31 12:45:34;;;;;;;1.13;0.50;;;18.00;86.60;;;;;;5112612;28;20466;-70
2022/05/31 12:48:14;;;;;;;0.77;0.50;;;17.70;85.10;;;;;;5112675;28;20482;-70
2022/05/31 12:51:00;;;;;;;1.65;0.50;;;17.60;84.60;;;;;;5112783;28;20040;-70
2022/05/31 12:53:35;;;;;;;1.48;0.60;;;17.40;86.20;;;;;;5095505;28;20079;-70
2022/05/31 12:56:01;;;;;;;1.17;0.50;;;17.30;85.10;;;;;;5092833;28;20534;-70
2022/05/31 12:58:35;;;;;;;;;;;17.30;86.70;;;;;;5070119;28;20433;-70
2022/05/31 13:01:13;;;;;;;1.02;0.70;;;17.20;90.00;;;;;;5095594;28;20052;-70
2022/05/31 13:03:42;;;;;;;1.30;0.60;;;17.10;88.10;;;;;;5099723;28;20039;-70
2022/05/31 13:06:11;;;;;;;0.77;0.60;;;17.20;89.30;;;;;;5101566;28;20490;-70
2022/05/31 13:08:49;;;;;;;0.85;0.70;;;17.20;90.30;;;;;;5080548;28;20121;-69
2022/05/31 13:20:31;;;;;;;2.83;0.80;;;17.40;90.70;;;;;;5095206;28;20047;-71
2022/05/31 13:23:04;;;;;;;0.75;0.50;;;17.50;89.60;;;;;;5095729;28;20462;-70
2022/05/31 13:25:51;;;;;;;0.77;0.50;;;17.60;90.10;;;;;;5099930;28;20106;-74
2022/05/31 13:28:32;;;;;;;1.13;0.70;;;17.60;87.80;;;;;;5096901;28;20043;-75
2022/05/31 13:31:13;;;;;;;2.25;0.90;;;17.70;88.70;;;;;;5112575;28;20132;-74
2022/05/31 13:33:40;;;;;;;1.45;0.60;;;17.70;89.70;;;;;;5113321;28;20048;-75
2022/05/31 13:36:15;;;;;;;0.70;0.30;;;17.70;88.10;;;;;;5109425;28;20073;-74
2022/05/31 13:38:44;;;;;;;0.82;0.50;;;17.80;89.80;;;;;;5092643;28;20044;-75
2022/05/31 13:41:12;;;;;;;1.05;0.75;;;17.80;89.60;;;;;;5107900;28;20164;-74
2022/05/31 13:43:47;;;;;;;1.10;0.70;;;17.70;87.80;;;;;;5107725;28;20047;-75
2022/05/31 13:46:18;;;;;;;1.23;0.70;;;17.60;86.50;;;;;;5098967;28;20506;-75
2022/05/31 13:48:52;;;;;;;1.55;0.80;;;17.50;88.60;;;;;;5096351;28;20882;-75